createdAt,value
2019-02-02T00:01:28.261Z,94569.50
2019-02-02T00:06:26.313Z,94560.51
2019-02-02T00:11:22.181Z,94543.84
2019-02-02T00:16:17.988Z,94542.70
2019-02-02T00:21:15.565Z,94561.25
2019-02-02T00:26:14.879Z,94565.95
2019-02-02T00:31:13.980Z,94570.19
2019-02-02T00:36:09.894Z,94565.60
2019-02-02T00:41:06.912Z,94559.98
2019-02-02T00:46:03.112Z,94570.18
2019-02-02T00:51:02.365Z,94581.35
2019-02-02T00:56:11.722Z,94597.18
2019-02-02T01:01:09.216Z,94610.30
2019-02-02T01:06:05.376Z,94612.06
2019-02-02T01:11:06.743Z,94597.75
2019-02-02T01:16:04.844Z,94595.55
2019-02-02T01:21:02.223Z,94624.97
2019-02-02T01:25:58.238Z,94608.53
2019-02-02T01:30:54.095Z,94607.11
2019-02-02T01:35:56.896Z,94609.22
2019-02-02T01:40:52.735Z,94605.45
2019-02-02T01:45:48.739Z,94603.84
2019-02-02T01:50:44.740Z,94584.38
2019-02-02T01:55:40.785Z,94570.78
2019-02-02T02:00:41.498Z,94581.32
2019-02-02T02:05:41.700Z,94598.81
2019-02-02T02:10:37.556Z,94607.50
2019-02-02T02:15:33.650Z,94611.23
2019-02-02T02:20:30.605Z,94604.30
2019-02-02T02:25:26.658Z,94613.94
2019-02-02T02:30:24.345Z,94612.87
2019-02-02T02:35:20.494Z,94608.66
2019-02-02T02:40:21.577Z,94630.72
2019-02-02T02:45:17.841Z,94611.80
2019-02-02T02:50:16.613Z,94605.02
2019-02-02T02:55:13.725Z,94610.09
2019-02-02T03:00:23.419Z,94602.69
2019-02-02T03:05:21.392Z,94638.70
2019-02-02T03:10:19.431Z,94610.17
2019-02-02T03:15:16.780Z,94594.12
2019-02-02T03:20:14.044Z,94596.93
2019-02-02T03:25:16.387Z,94622.39
2019-02-02T03:30:18.552Z,94622.17
2019-02-02T03:35:16.378Z,94621.91
2019-02-02T03:40:23.124Z,94642.08
2019-02-02T03:45:23.944Z,94666.84
2019-02-02T03:50:20.218Z,94648.32
2019-02-02T03:55:17.079Z,94636.58
2019-02-02T04:00:21.998Z,94639.28
2019-02-02T04:05:21.644Z,94660.97
2019-02-02T04:10:18.025Z,94666.84
2019-02-02T04:15:14.532Z,94645.13
2019-02-02T04:20:14.756Z,94640.45
2019-02-02T04:25:11.119Z,94633.06
2019-02-02T04:30:11.182Z,94644.58
2019-02-02T04:35:09.001Z,94668.85
2019-02-02T04:40:05.067Z,94692.34
2019-02-02T04:45:05.974Z,94684.59
2019-02-02T04:50:02.172Z,94693.24
2019-02-02T04:54:58.082Z,94707.34
2019-02-02T04:59:54.083Z,94740.56
2019-02-02T05:04:49.950Z,94721.55
2019-02-02T05:09:45.834Z,94715.88
2019-02-02T05:14:41.694Z,94735.72
2019-02-02T05:19:37.745Z,94740.06
2019-02-02T05:24:33.564Z,94730.20
2019-02-02T05:29:40.746Z,94721.89
2019-02-02T05:34:29.197Z,94727.40
2019-02-02T05:39:24.915Z,94732.56
2019-02-02T05:44:27.929Z,94742.34
2019-02-02T05:49:23.960Z,94744.80
2019-02-02T05:54:46.337Z,94759.08
2019-02-02T05:59:54.737Z,94783.27
2019-02-02T06:10:19.750Z,94808.06
2019-02-02T06:15:17.961Z,94815.81
2019-02-02T06:20:15.037Z,94808.43
2019-02-02T06:25:12.333Z,94803.25
2019-02-02T06:30:12.645Z,94801.03
2019-02-02T06:35:11.043Z,94816.44
2019-02-02T06:40:08.105Z,94821.46
2019-02-02T06:45:04.005Z,94840.97
2019-02-02T06:49:59.822Z,94840.49
2019-02-02T06:54:55.581Z,94847.98
2019-02-02T06:59:51.312Z,94845.38
2019-02-02T07:04:47.031Z,94849.44
2019-02-02T07:09:42.820Z,94866.97
2019-02-02T07:14:38.596Z,94886.23
2019-02-02T07:19:34.518Z,94893.30
2019-02-02T07:24:30.393Z,94906.93
2019-02-02T07:29:26.356Z,94919.44
2019-02-02T07:34:22.167Z,94925.19
2019-02-02T07:39:17.996Z,94933.20
2019-02-02T07:44:14.298Z,94941.98
2019-02-02T07:49:11.172Z,94943.59
2019-02-02T07:54:07.357Z,94953.34
2019-02-02T07:59:03.199Z,94970.14
2019-02-02T08:03:59.125Z,94977.48
2019-02-02T08:08:55.399Z,94981.77
2019-02-02T08:13:51.297Z,94987.30
2019-02-02T08:18:47.363Z,94991.55
2019-02-02T08:23:43.109Z,94997.59
2019-02-02T08:28:38.981Z,94990.34
2019-02-02T08:33:34.769Z,95004.50
2019-02-02T08:38:30.756Z,95015.07
2019-02-02T08:43:26.640Z,95016.36
2019-02-02T08:48:22.475Z,95024.43
2019-02-02T08:53:18.379Z,95023.89
2019-02-02T08:58:14.389Z,95030.72
2019-02-02T09:03:13.509Z,95039.17
2019-02-02T09:14:29.851Z,95049.09
2019-02-02T09:19:25.975Z,95046.95
2019-02-02T09:24:24.943Z,95067.22
2019-02-02T09:29:32.249Z,95069.44
2019-02-02T09:34:35.472Z,95077.47
2019-02-02T09:39:31.706Z,95089.14
2019-02-02T09:44:29.340Z,95090.45
2019-02-02T09:49:26.551Z,95097.17
2019-02-02T09:54:26.714Z,95094.97
2019-02-02T09:59:21.020Z,95108.88
2019-02-02T10:04:17.017Z,95113.61
2019-02-02T10:09:12.986Z,95121.63
2019-02-02T10:14:08.522Z,95118.58
2019-02-02T10:19:04.852Z,95122.33
2019-02-02T10:24:00.926Z,95128.70
2019-02-02T10:28:57.016Z,95132.34
2019-02-02T10:33:55.280Z,95139.77
2019-02-02T10:38:57.653Z,95132.34
2019-02-02T10:43:59.168Z,95131.18
2019-02-02T10:48:55.562Z,95131.88
2019-02-02T10:53:51.662Z,95122.23
2019-02-02T10:58:47.686Z,95121.41
2019-02-02T11:03:43.616Z,95106.25
2019-02-02T11:08:39.740Z,95094.70
2019-02-02T11:13:35.683Z,95100.59
2019-02-02T11:18:31.628Z,95100.79
2019-02-02T11:23:27.771Z,95085.45
2019-02-02T11:28:24.191Z,95084.90
2019-02-02T11:33:21.899Z,95073.63
2019-02-02T11:38:48.340Z,95065.02
2019-02-02T11:43:44.319Z,95063.97
2019-02-02T11:48:42.435Z,95076.47
2019-02-02T11:53:38.558Z,95080.94
2019-02-02T11:58:34.524Z,95081.76
2019-02-02T12:03:30.516Z,95072.30
2019-02-02T12:08:26.585Z,95066.59
2019-02-02T12:13:22.620Z,95072.14
2019-02-02T12:18:18.709Z,95073.08
2019-02-02T12:23:14.506Z,95061.77
2019-02-02T12:28:10.315Z,95063.62
2019-02-02T12:33:07.436Z,95071.19
2019-02-02T12:38:03.340Z,95081.81
2019-02-02T12:42:59.131Z,95091.77
2019-02-02T12:47:55.352Z,95080.05
2019-02-02T12:52:51.167Z,95086.81
2019-02-02T12:57:47.050Z,95094.77
2019-02-02T13:02:45.395Z,95103.47
2019-02-02T13:07:41.240Z,95102.88
2019-02-02T13:12:37.035Z,95100.66
2019-02-02T13:17:32.822Z,95110.80
2019-02-02T13:22:34.294Z,95113.83
2019-02-02T13:27:28.468Z,95112.27
2019-02-02T13:32:25.020Z,95115.45
2019-02-02T13:37:20.814Z,95127.14
2019-02-02T13:42:16.684Z,95123.88
2019-02-02T13:47:12.483Z,95137.19
2019-02-02T13:52:14.075Z,95136.44
2019-02-02T13:57:09.847Z,95128.53
2019-02-02T14:02:05.632Z,95132.18
2019-02-02T14:07:01.405Z,95138.33
2019-02-02T14:11:57.115Z,95140.58
2019-02-02T14:16:52.864Z,95132.69
2019-02-02T14:21:48.595Z,95137.64
2019-02-02T14:26:44.370Z,95150.06
2019-02-02T14:31:40.106Z,95157.16
2019-02-02T14:36:35.921Z,95166.84
2019-02-02T14:58:00.445Z,95180.46
2019-02-02T15:02:56.493Z,95184.45
2019-02-02T15:07:52.729Z,95194.27
2019-02-02T15:12:48.718Z,95190.36
2019-02-02T15:18:38.680Z,95195.80
2019-02-02T15:35:45.838Z,95205.48
2019-02-02T15:40:41.671Z,95240.28
2019-02-02T15:45:37.444Z,95255.02
2019-02-02T15:50:33.869Z,95265.39
2019-02-02T15:55:29.622Z,95268.67
2019-02-02T16:00:31.840Z,95270.44
2019-02-02T16:05:28.353Z,95278.44
2019-02-02T16:10:26.814Z,95288.59
2019-02-02T16:15:22.742Z,95289.97
2019-02-02T16:20:24.585Z,95293.14
2019-02-02T16:25:20.359Z,95290.87
2019-02-02T16:30:28.478Z,95310.07
2019-02-02T16:35:24.492Z,95328.09
2019-02-02T16:40:22.861Z,95325.84
2019-02-02T16:45:22.759Z,95332.67
2019-02-02T16:50:19.527Z,95330.67
2019-02-02T17:00:24.722Z,95326.66
2019-02-02T17:05:20.558Z,95324.84
2019-02-02T17:10:19.877Z,95322.97
2019-02-02T17:15:25.106Z,95347.44
2019-02-02T17:20:30.627Z,95365.91
2019-02-02T17:25:26.421Z,95384.09
2019-02-02T17:30:24.176Z,95393.45
2019-02-02T17:35:20.369Z,95408.08
2019-02-02T17:40:19.603Z,95416.33
2019-02-02T17:45:18.504Z,95425.27
2019-02-02T17:50:18.809Z,95423.15
2019-02-02T17:55:14.970Z,95425.56
2019-02-02T18:00:19.211Z,95433.92
2019-02-02T18:05:15.031Z,95435.07
2019-02-02T18:10:14.343Z,95447.06
2019-02-02T18:15:12.592Z,95447.70
2019-02-02T18:20:12.076Z,95456.71
2019-02-02T18:25:09.856Z,95453.11
2019-02-02T18:30:08.134Z,95462.50
2019-02-02T18:35:12.045Z,95469.09
2019-02-02T18:40:12.497Z,95470.30
2019-02-02T18:45:09.576Z,95482.16
2019-02-02T18:50:07.478Z,95480.63
2019-02-02T18:55:03.476Z,95487.81
2019-02-02T19:00:00.500Z,95494.08
2019-02-02T19:05:03.931Z,95493.34
2019-02-02T19:09:54.115Z,95488.67
2019-02-02T19:14:50.185Z,95500.75
2019-02-02T19:19:45.967Z,95502.75
2019-02-02T19:24:44.669Z,95516.14
2019-02-02T19:29:57.424Z,95519.11
2019-02-02T19:34:52.746Z,95531.44
2019-02-02T19:39:48.745Z,95558.51
2019-02-02T19:44:49.103Z,95568.16
2019-02-02T19:49:45.022Z,95572.23
2019-02-02T19:54:41.036Z,95590.63
2019-02-02T19:59:49.139Z,95585.86
2019-02-02T20:04:51.697Z,95591.31
2019-02-02T20:10:02.696Z,95604.93
2019-02-02T20:14:59.450Z,95600.11
2019-02-02T20:20:00.533Z,95605.43
2019-02-02T20:25:01.202Z,95602.11
2019-02-02T20:30:00.369Z,95607.94
2019-02-02T20:35:15.038Z,95613.47
2019-02-02T20:40:39.509Z,95611.84
2019-02-02T20:45:45.923Z,95620.00
2019-02-02T20:50:48.810Z,95619.84
2019-02-02T20:55:47.867Z,95621.96
2019-02-02T21:00:44.224Z,95622.67
2019-02-02T21:05:51.631Z,95628.27
2019-02-02T21:10:39.399Z,95620.34
2019-02-02T21:15:36.748Z,95622.56
2019-02-02T21:20:32.852Z,95625.90
2019-02-02T21:25:28.803Z,95636.22
2019-02-02T21:30:30.567Z,95626.61
2019-02-02T21:35:26.775Z,95641.69
2019-02-02T21:40:25.990Z,95648.03
2019-02-02T21:45:22.155Z,95663.69
2019-02-02T21:50:28.086Z,95670.03
2019-02-02T21:55:26.768Z,95669.39
2019-02-02T22:00:26.225Z,95675.68
2019-02-02T22:05:22.111Z,95678.16
2019-02-02T22:10:21.311Z,95679.27
2019-02-02T22:15:21.158Z,95687.86
2019-02-02T22:20:17.514Z,95694.41
2019-02-02T22:25:20.376Z,95686.94
2019-02-02T22:30:20.074Z,95685.50
2019-02-02T22:35:16.207Z,95696.52
2019-02-02T22:40:17.757Z,95704.69
2019-02-02T22:45:17.338Z,95711.52
2019-02-02T22:50:16.931Z,95710.33
2019-02-02T22:55:14.374Z,95705.94
2019-02-02T23:00:52.966Z,95712.69
2019-02-02T23:06:08.307Z,95705.47
2019-02-02T23:12:03.620Z,95713.70
2019-02-02T23:16:59.565Z,95710.45
2019-02-02T23:21:55.369Z,95716.57
2019-02-02T23:26:51.668Z,95722.11
2019-02-02T23:31:47.549Z,95721.53
2019-02-02T23:36:50.894Z,95725.06
2019-02-02T23:41:41.334Z,95725.63
2019-02-02T23:46:38.760Z,95733.01
2019-02-02T23:51:37.027Z,95734.77
2019-02-02T23:56:36.133Z,95736.17
